Vernon, New Jersey
Current Conditions -  °F | °C
As of 2:53 AM on Sunday 23 Nov 2014 (Local Time) from KFWN Reporting Station
Broken Clouds Broken Clouds  
Wind Chill: 33°   Ceiling: 10000
Heat Index: 38°   Visibility: 10mi
Dew Point: 21°   Wind: 7mph
Humidity: 51%   Direction: 210°SSW
Pressure: 30.15"   Gusts: NA
Location:  41.2°N, 74.48°W
Report Text: KFWN 230753Z AUTO 21006KT 10SM BKN100 03/M06 A3015 RMK AO2 SLP214 T00331061
Loading
Personal Weather Stations






























Interactive Weather Map New forecast layout! Learn more

10-Day Weather Forecast

Advertisements
Track Severe Weather on mobile